createdAt,value
2023-03-12T00:00:54.540Z,2.45
2023-03-12T00:01:56.022Z,2.70
2023-03-12T00:02:57.624Z,2.78
2023-03-12T00:04:01.932Z,2.28
2023-03-12T00:05:03.865Z,2.15
2023-03-12T00:06:10.576Z,2.58
2023-03-12T00:07:12.547Z,2.45
2023-03-12T00:08:14.130Z,2.25
2023-03-12T00:09:15.589Z,2.42
2023-03-12T00:10:17.200Z,2.63
2023-03-12T00:11:20.954Z,2.45
2023-03-12T00:12:22.395Z,2.15
2023-03-12T00:13:23.896Z,2.30
2023-03-12T00:14:25.354Z,2.47
2023-03-12T00:15:27.721Z,2.25
2023-03-12T00:16:29.631Z,2.63
2023-03-12T00:17:31.067Z,2.35
2023-03-12T00:18:32.576Z,2.28
2023-03-12T00:19:33.994Z,2.40
2023-03-12T00:20:35.435Z,2.65
2023-03-12T00:21:36.859Z,2.70
2023-03-12T00:22:38.641Z,2.28
2023-03-12T00:23:40.290Z,2.70
2023-03-12T00:24:41.711Z,3.15
2023-03-12T00:25:45.544Z,2.50
2023-03-12T00:26:48.242Z,2.22
2023-03-12T00:27:49.649Z,2.50
2023-03-12T00:28:51.281Z,1.98
2023-03-12T00:29:52.813Z,2.22
2023-03-12T00:30:57.073Z,2.03
2023-03-12T00:31:58.606Z,2.30
2023-03-12T00:32:59.992Z,2.33
2023-03-12T00:34:02.721Z,2.35
2023-03-12T00:35:04.661Z,2.20
2023-03-12T00:36:06.723Z,2.70
2023-03-12T00:37:08.584Z,2.20
2023-03-12T00:38:10.179Z,2.40
2023-03-12T00:39:11.729Z,2.80
2023-03-12T00:40:13.461Z,2.55
2023-03-12T00:41:14.912Z,2.35
2023-03-12T00:42:16.344Z,3.00
2023-03-12T00:43:17.754Z,2.15
2023-03-12T00:44:19.283Z,2.17
2023-03-12T00:45:20.836Z,2.33
2023-03-12T00:46:22.524Z,2.63
2023-03-12T00:47:23.976Z,1.85
2023-03-12T00:48:25.685Z,2.58
2023-03-12T00:49:27.202Z,2.10
2023-03-12T00:50:28.615Z,2.10
2023-03-12T00:51:30.186Z,2.10
2023-03-12T00:52:31.586Z,2.65
2023-03-12T00:53:33.048Z,2.33
2023-03-12T00:54:34.660Z,2.63
2023-03-12T00:55:36.194Z,2.42
2023-03-12T00:56:37.688Z,2.10
2023-03-12T00:57:39.091Z,1.95
2023-03-12T00:58:42.659Z,2.20
2023-03-12T00:59:44.261Z,2.40
2023-03-12T01:00:45.706Z,2.60
2023-03-12T01:01:47.258Z,2.70
2023-03-12T01:02:48.790Z,2.15
2023-03-12T01:03:52.136Z,1.92
2023-03-12T01:04:53.695Z,2.10
2023-03-12T01:05:55.233Z,1.95
2023-03-12T01:06:56.678Z,2.42
2023-03-12T01:07:58.091Z,2.20
2023-03-12T01:09:01.819Z,2.13
2023-03-12T01:10:04.348Z,2.45
2023-03-12T01:11:05.830Z,1.95
2023-03-12T01:12:07.568Z,2.42
2023-03-12T01:13:09.302Z,2.10
2023-03-12T01:14:10.938Z,2.63
2023-03-12T01:15:17.324Z,2.45
2023-03-12T01:16:18.754Z,2.53
2023-03-12T01:17:20.331Z,2.45
2023-03-12T01:18:21.818Z,2.13
2023-03-12T01:19:23.624Z,1.95
2023-03-12T01:20:25.660Z,2.30
2023-03-12T01:21:28.605Z,2.53
2023-03-12T01:22:30.016Z,2.00
2023-03-12T01:23:31.541Z,2.63
2023-03-12T01:24:32.987Z,2.67
2023-03-12T01:25:34.963Z,2.42
2023-03-12T01:26:36.382Z,2.10
2023-03-12T01:27:37.814Z,2.28
2023-03-12T01:28:39.232Z,2.28
2023-03-12T01:29:40.639Z,2.25
2023-03-12T01:30:42.157Z,2.22
2023-03-12T01:31:43.627Z,2.45
2023-03-12T01:32:45.128Z,2.35
2023-03-12T01:33:51.425Z,2.58
2023-03-12T01:34:52.873Z,2.25
2023-03-12T01:35:54.398Z,2.22
2023-03-12T01:36:55.976Z,2.20
2023-03-12T01:37:57.448Z,2.53
2023-03-12T01:38:59.658Z,2.33
2023-03-12T01:41:02.432Z,1.75
2023-03-12T01:42:04.256Z,2.33
2023-03-12T01:43:22.894Z,2.40
2023-03-12T01:44:24.455Z,2.13
2023-03-12T01:46:03.375Z,2.45
2023-03-12T01:47:04.917Z,2.47
2023-03-12T01:48:06.354Z,2.03
2023-03-12T01:49:13.620Z,2.22
2023-03-12T01:50:15.197Z,2.58
2023-03-12T01:51:18.668Z,2.40
2023-03-12T01:52:24.446Z,2.30
2023-03-12T01:53:26.081Z,1.95
2023-03-12T01:54:50.040Z,2.25
2023-03-12T01:55:51.594Z,2.38
2023-03-12T01:56:54.631Z,2.13
2023-03-12T01:57:58.045Z,2.33
2023-03-12T01:59:03.157Z,2.33
2023-03-12T02:00:14.646Z,2.58
2023-03-12T02:01:18.601Z,2.33
2023-03-12T02:02:26.553Z,2.17
2023-03-12T02:03:29.794Z,2.30
2023-03-12T02:04:33.394Z,2.30
2023-03-12T02:05:48.229Z,2.53
2023-03-12T02:07:09.401Z,2.22
2023-03-12T02:08:16.429Z,2.92
2023-03-12T02:09:20.215Z,2.05
2023-03-12T02:10:22.165Z,2.17
2023-03-12T02:11:23.570Z,2.47
2023-03-12T02:12:24.990Z,2.63
2023-03-12T02:13:27.907Z,2.40
2023-03-12T02:14:29.503Z,2.55
2023-03-12T02:15:31.395Z,2.45
2023-03-12T02:16:33.361Z,2.70
2023-03-12T02:17:36.892Z,2.38
2023-03-12T02:18:38.437Z,2.45
2023-03-12T02:20:01.323Z,2.17
2023-03-12T02:21:24.775Z,2.50
2023-03-12T02:22:26.584Z,2.40
2023-03-12T02:23:35.248Z,2.25
2023-03-12T02:24:48.577Z,2.17
2023-03-12T02:25:53.287Z,2.67
2023-03-12T02:26:55.764Z,2.58
2023-03-12T02:27:59.820Z,2.13
2023-03-12T02:29:01.628Z,2.33
2023-03-12T02:30:05.064Z,2.47
2023-03-12T02:31:07.214Z,2.30
2023-03-12T02:33:12.081Z,2.03
2023-03-12T02:35:17.118Z,2.45
2023-03-12T02:36:19.712Z,2.25
2023-03-12T02:37:21.194Z,2.50
2023-03-12T02:38:44.505Z,2.13
2023-03-12T02:39:54.788Z,2.40
2023-03-12T02:41:01.609Z,2.42
2023-03-12T02:42:03.241Z,2.67
2023-03-12T02:43:09.228Z,2.45
2023-03-12T02:44:18.147Z,2.40
2023-03-12T02:45:22.896Z,2.63
2023-03-12T02:46:25.106Z,2.60
2023-03-12T02:47:27.408Z,2.67
2023-03-12T02:48:29.003Z,2.50
2023-03-12T02:49:34.423Z,2.80
2023-03-12T02:50:35.897Z,2.45
2023-03-12T02:51:37.351Z,2.78
2023-03-12T02:52:39.190Z,2.72
2023-03-12T02:53:40.644Z,2.72
2023-03-12T02:54:42.362Z,2.50
2023-03-12T02:55:43.779Z,2.47
2023-03-12T02:56:45.658Z,2.65
2023-03-12T02:57:47.070Z,2.42
2023-03-12T02:58:49.009Z,2.85
2023-03-12T02:59:50.406Z,2.83
2023-03-12T03:00:51.931Z,3.05
2023-03-12T03:01:58.753Z,2.53
2023-03-12T03:03:01.259Z,2.38
2023-03-12T03:04:04.898Z,2.60
2023-03-12T03:05:07.032Z,2.58
2023-03-12T03:06:08.672Z,2.53
2023-03-12T03:07:10.180Z,2.63
2023-03-12T03:08:11.640Z,2.60
2023-03-12T03:09:13.056Z,3.25
2023-03-12T03:10:15.676Z,2.55
2023-03-12T03:11:17.365Z,2.50
2023-03-12T03:12:18.761Z,2.70
2023-03-12T03:13:20.256Z,2.15
2023-03-12T03:14:21.745Z,2.70
2023-03-12T03:15:23.437Z,3.15
2023-03-12T03:16:25.069Z,2.67
2023-03-12T03:17:27.189Z,2.85
2023-03-12T03:19:30.578Z,2.50
2023-03-12T03:20:32.218Z,2.60
2023-03-12T03:21:33.809Z,2.80
2023-03-12T03:22:35.230Z,2.85
2023-03-12T03:23:37.377Z,2.67
2023-03-12T03:25:40.160Z,2.78
2023-03-12T03:26:41.632Z,2.70
2023-03-12T03:27:43.120Z,3.03
2023-03-12T03:28:44.998Z,2.80
2023-03-12T03:29:46.567Z,3.13
2023-03-12T03:30:48.448Z,2.53
2023-03-12T03:31:49.881Z,2.95
2023-03-12T03:32:51.351Z,2.90
2023-03-12T03:33:52.766Z,2.65
2023-03-12T03:34:54.320Z,2.75
2023-03-12T03:35:59.365Z,3.13
2023-03-12T03:37:00.886Z,3.05
2023-03-12T03:38:02.500Z,3.08
2023-03-12T03:39:05.040Z,2.95
2023-03-12T03:40:07.464Z,2.60
2023-03-12T03:41:08.970Z,2.88
2023-03-12T03:42:10.469Z,3.15
2023-03-12T03:43:11.856Z,3.00
2023-03-12T03:44:14.166Z,2.90
2023-03-12T03:45:15.747Z,3.10
2023-03-12T03:46:17.640Z,2.88
2023-03-12T03:47:19.376Z,3.42
2023-03-12T03:48:20.754Z,2.40
2023-03-12T03:49:22.979Z,3.13
2023-03-12T03:50:24.514Z,2.70
2023-03-12T03:51:25.924Z,3.22
2023-03-12T03:52:27.388Z,3.17
2023-03-12T03:53:28.872Z,3.40
2023-03-12T03:54:31.084Z,3.00
2023-03-12T03:55:37.127Z,2.47
2023-03-12T03:56:40.172Z,2.83
2023-03-12T03:57:41.681Z,2.65
2023-03-12T03:58:43.546Z,2.85
2023-03-12T03:59:44.992Z,3.03
2023-03-12T04:00:46.743Z,2.88
2023-03-12T04:01:48.203Z,3.33
2023-03-12T04:02:49.638Z,3.05
2023-03-12T04:03:51.044Z,3.08
2023-03-12T04:04:56.455Z,3.13
2023-03-12T04:06:00.952Z,3.25
2023-03-12T04:07:02.361Z,3.38
2023-03-12T04:08:04.070Z,3.15
2023-03-12T04:09:05.678Z,3.38
2023-03-12T04:10:07.975Z,2.92
2023-03-12T04:11:14.916Z,3.05
2023-03-12T04:12:16.371Z,3.33
2023-03-12T04:13:18.039Z,3.47
2023-03-12T04:14:19.503Z,3.35
2023-03-12T04:15:21.050Z,2.75
2023-03-12T04:16:22.627Z,3.25
2023-03-12T04:17:24.085Z,3.38
2023-03-12T04:18:25.584Z,3.00
2023-03-12T04:19:27.207Z,3.17
2023-03-12T04:20:28.653Z,2.88
2023-03-12T04:21:30.056Z,3.88
2023-03-12T04:22:31.479Z,3.22
2023-03-12T04:23:33.325Z,3.72
2023-03-12T04:24:34.798Z,3.97
2023-03-12T04:25:36.966Z,3.55
2023-03-12T04:26:39.498Z,3.60
2023-03-12T04:27:40.900Z,3.30
2023-03-12T04:28:42.348Z,3.72
2023-03-12T04:29:44.759Z,3.45
2023-03-12T04:30:55.212Z,3.67
2023-03-12T04:31:56.773Z,3.67
2023-03-12T04:32:58.203Z,3.90
2023-03-12T04:33:59.738Z,3.67
2023-03-12T04:35:01.183Z,3.42
2023-03-12T04:36:02.668Z,3.75
2023-03-12T04:37:04.239Z,4.00
2023-03-12T04:38:05.683Z,3.85
2023-03-12T04:39:07.210Z,3.65
2023-03-12T04:40:10.408Z,4.10
2023-03-12T04:41:14.288Z,3.95
2023-03-12T04:42:15.787Z,3.75
2023-03-12T04:43:20.825Z,4.35
2023-03-12T04:44:22.446Z,4.40
2023-03-12T04:45:23.865Z,3.95
2023-03-12T04:46:25.661Z,3.85
2023-03-12T04:47:27.129Z,3.95
2023-03-12T04:48:29.005Z,4.38
2023-03-12T04:49:30.500Z,3.83
2023-03-12T04:50:32.240Z,4.45
2023-03-12T04:51:33.705Z,4.75
2023-03-12T04:52:35.109Z,4.47
2023-03-12T04:53:36.583Z,5.28
2023-03-12T04:54:38.029Z,4.35
2023-03-12T04:55:39.486Z,4.68
2023-03-12T04:56:40.930Z,4.72
2023-03-12T04:57:42.391Z,4.63
2023-03-12T04:58:43.845Z,5.10
2023-03-12T04:59:45.310Z,5.03
2023-03-12T05:00:48.522Z,5.35
2023-03-12T05:01:51.413Z,5.10
2023-03-12T05:02:53.245Z,4.65
2023-03-12T05:03:55.263Z,4.80
2023-03-12T05:04:57.558Z,4.45
2023-03-12T05:07:00.257Z,4.30
2023-03-12T05:08:02.606Z,4.70
2023-03-12T05:09:04.116Z,5.05
2023-03-12T05:10:06.069Z,5.20
2023-03-12T05:11:07.497Z,5.43
2023-03-12T05:12:08.995Z,4.80
2023-03-12T05:13:15.553Z,5.82
2023-03-12T05:14:17.013Z,4.97
2023-03-12T05:15:18.603Z,5.45
2023-03-12T05:16:20.115Z,5.35
2023-03-12T05:17:21.675Z,5.70
2023-03-12T05:18:23.165Z,5.43
2023-03-12T05:19:24.693Z,5.53
2023-03-12T05:20:26.189Z,5.40
2023-03-12T05:21:27.904Z,5.10
2023-03-12T05:22:29.300Z,5.40
2023-03-12T05:23:31.034Z,5.75
2023-03-12T05:24:32.561Z,5.47
2023-03-12T05:25:34.150Z,5.72
2023-03-12T05:26:35.645Z,5.90
2023-03-12T05:27:37.628Z,6.00
2023-03-12T05:28:39.047Z,5.68
2023-03-12T05:29:40.636Z,5.65
2023-03-12T05:30:42.130Z,5.93
2023-03-12T05:31:43.598Z,5.03
2023-03-12T05:32:45.051Z,5.57
2023-03-12T05:33:47.141Z,5.63
2023-03-12T05:34:48.736Z,5.60
2023-03-12T05:35:50.945Z,5.88
2023-03-12T05:37:53.641Z,4.82
2023-03-12T05:38:55.110Z,4.90
2023-03-12T05:39:56.620Z,5.45
2023-03-12T05:40:59.554Z,5.80
2023-03-12T05:42:01.207Z,5.43
2023-03-12T05:43:02.672Z,5.13
2023-03-12T05:44:04.210Z,5.47
2023-03-12T05:45:06.426Z,5.88
2023-03-12T05:47:09.519Z,4.85
2023-03-12T05:48:10.954Z,5.22
2023-03-12T05:49:12.477Z,5.85
2023-03-12T05:50:16.305Z,5.70
2023-03-12T05:51:17.918Z,5.55
2023-03-12T05:52:19.350Z,5.40
2023-03-12T05:53:20.753Z,4.85
2023-03-12T05:54:22.329Z,5.53
2023-03-12T05:55:23.817Z,5.57
2023-03-12T05:56:25.691Z,5.70
2023-03-12T05:57:27.121Z,5.85
2023-03-12T05:58:28.516Z,5.18
2023-03-12T05:59:30.068Z,5.00
2023-03-12T06:00:32.450Z,5.40
2023-03-12T06:01:34.207Z,5.15
2023-03-12T06:02:35.822Z,5.72
2023-03-12T06:03:37.356Z,5.25
2023-03-12T06:04:38.821Z,5.47
2023-03-12T06:05:40.400Z,4.85
2023-03-12T06:06:41.854Z,5.13
2023-03-12T06:07:43.306Z,4.90
2023-03-12T06:08:45.329Z,4.85
2023-03-12T06:09:46.779Z,5.63
2023-03-12T06:10:52.018Z,4.43
2023-03-12T06:11:53.509Z,5.53
2023-03-12T06:12:55.009Z,4.53
2023-03-12T06:13:57.138Z,4.70
2023-03-12T06:14:58.565Z,4.72
2023-03-12T06:16:08.537Z,4.97
2023-03-12T06:17:10.020Z,4.80
2023-03-12T06:18:11.442Z,4.60
2023-03-12T06:19:14.148Z,4.57
2023-03-12T06:20:15.673Z,4.60
2023-03-12T06:21:20.527Z,4.50
2023-03-12T06:22:22.071Z,4.40
2023-03-12T06:23:23.527Z,4.50
2023-03-12T06:24:24.952Z,4.72
2023-03-12T06:25:26.435Z,4.63
2023-03-12T06:26:28.262Z,4.20
2023-03-12T06:27:29.744Z,4.80
2023-03-12T06:28:31.185Z,3.83
2023-03-12T06:29:32.658Z,4.13
2023-03-12T06:30:34.138Z,3.92
2023-03-12T06:31:38.407Z,3.88
2023-03-12T06:32:40.334Z,4.05
2023-03-12T06:33:41.769Z,3.67
2023-03-12T06:34:43.205Z,3.60
2023-03-12T06:35:47.874Z,3.88
2023-03-12T06:36:49.331Z,3.92
2023-03-12T06:37:50.779Z,3.80
2023-03-12T06:38:52.226Z,4.13
2023-03-12T06:39:54.248Z,3.75
2023-03-12T06:41:03.286Z,4.15
2023-03-12T06:42:05.419Z,3.38
2023-03-12T06:44:13.589Z,3.42
2023-03-12T06:45:15.107Z,3.50
2023-03-12T06:46:19.084Z,3.30
2023-03-12T06:47:20.930Z,3.40
2023-03-12T06:48:23.553Z,3.65
2023-03-12T06:49:25.603Z,3.42
2023-03-12T06:50:27.002Z,2.95
2023-03-12T06:51:28.463Z,2.80
2023-03-12T06:52:29.900Z,3.50
2023-03-12T06:53:32.457Z,2.92
2023-03-12T06:54:33.999Z,3.35
2023-03-12T06:55:35.423Z,2.60
2023-03-12T06:56:37.002Z,3.08
2023-03-12T06:57:38.455Z,2.90
2023-03-12T06:58:40.252Z,3.22
2023-03-12T06:59:41.922Z,2.85
2023-03-12T07:00:43.467Z,3.00
2023-03-12T07:01:44.935Z,2.65
2023-03-12T07:02:46.365Z,3.13
2023-03-12T07:03:48.027Z,2.83
2023-03-12T07:04:49.459Z,3.05
2023-03-12T07:05:51.876Z,2.78
2023-03-12T07:06:53.703Z,2.70
2023-03-12T07:07:55.479Z,2.70
2023-03-12T07:08:56.978Z,2.53
2023-03-12T07:09:59.639Z,2.95
2023-03-12T07:11:01.973Z,2.47
2023-03-12T07:12:04.187Z,2.90
2023-03-12T07:13:06.186Z,2.80
2023-03-12T07:14:07.643Z,2.83
2023-03-12T07:15:09.395Z,3.35
2023-03-12T07:16:11.649Z,3.05
2023-03-12T07:17:13.091Z,2.83
2023-03-12T07:18:14.534Z,3.22
2023-03-12T07:19:16.092Z,2.90
2023-03-12T07:20:17.903Z,2.50
2023-03-12T07:21:23.661Z,2.85
2023-03-12T07:22:25.251Z,2.92
2023-03-12T07:23:26.768Z,2.40
2023-03-12T07:24:28.210Z,2.65
2023-03-12T07:25:29.589Z,2.60
2023-03-12T07:26:31.044Z,2.55
2023-03-12T07:27:32.757Z,2.95
2023-03-12T07:28:34.203Z,3.05
2023-03-12T07:29:35.618Z,2.80
2023-03-12T07:30:38.128Z,2.60
2023-03-12T07:31:39.672Z,2.83
2023-03-12T07:32:41.416Z,2.95
2023-03-12T07:33:43.141Z,2.17
2023-03-12T07:34:45.149Z,2.83
2023-03-12T07:35:50.188Z,2.53
2023-03-12T07:36:53.152Z,2.95
2023-03-12T07:37:54.780Z,2.72
2023-03-12T07:38:56.224Z,2.50
2023-03-12T07:39:57.898Z,2.63
2023-03-12T07:41:00.387Z,2.92
2023-03-12T07:42:01.890Z,3.00
2023-03-12T07:43:06.696Z,2.67
2023-03-12T07:44:09.395Z,3.05
2023-03-12T07:45:11.148Z,3.38
2023-03-12T07:46:12.796Z,3.22
2023-03-12T07:47:23.544Z,2.70
2023-03-12T07:48:25.971Z,2.92
2023-03-12T07:49:27.531Z,2.80
2023-03-12T07:50:29.080Z,2.83
2023-03-12T07:51:30.957Z,3.17
2023-03-12T07:52:32.439Z,3.45
2023-03-12T07:53:33.972Z,3.40
2023-03-12T07:54:36.401Z,3.67
2023-03-12T07:55:38.475Z,3.50
2023-03-12T07:57:41.885Z,3.30
2023-03-12T07:58:43.565Z,2.90
2023-03-12T07:59:47.181Z,3.47
2023-03-12T08:00:49.054Z,3.17
2023-03-12T08:01:50.566Z,4.18
2023-03-12T08:02:52.693Z,3.60
2023-03-12T08:03:54.336Z,3.60
2023-03-12T08:04:55.774Z,3.80
2023-03-12T08:06:02.511Z,3.90
2023-03-12T08:07:05.062Z,5.05
2023-03-12T08:08:07.566Z,3.80
2023-03-12T08:09:09.835Z,3.60
2023-03-12T08:10:12.186Z,3.92
2023-03-12T08:11:13.761Z,3.83
2023-03-12T08:12:15.325Z,3.53
2023-03-12T08:13:16.853Z,3.78
2023-03-12T08:14:18.311Z,4.20
2023-03-12T08:15:20.313Z,3.92
2023-03-12T08:16:21.723Z,3.75
2023-03-12T08:17:23.321Z,3.88
2023-03-12T08:18:24.938Z,3.95
2023-03-12T08:19:27.226Z,4.53
2023-03-12T08:20:28.705Z,3.72
2023-03-12T08:21:30.203Z,4.03
2023-03-12T08:22:31.661Z,4.22
2023-03-12T08:23:33.373Z,4.38
2023-03-12T08:24:35.541Z,3.92
2023-03-12T08:26:38.608Z,4.07
2023-03-12T08:27:40.062Z,3.75
2023-03-12T08:28:41.632Z,4.03
2023-03-12T08:29:43.041Z,3.53
2023-03-12T08:30:52.456Z,3.92
2023-03-12T08:32:04.551Z,3.75
2023-03-12T08:33:06.588Z,3.15
2023-03-12T08:34:08.213Z,4.43
2023-03-12T08:35:10.163Z,3.58
2023-03-12T08:36:11.580Z,3.95
2023-03-12T08:37:13.182Z,3.70
2023-03-12T08:38:14.678Z,5.97
2023-03-12T08:39:16.127Z,5.70
2023-03-12T08:40:18.633Z,4.60
2023-03-12T08:41:20.593Z,4.05
2023-03-12T08:42:21.985Z,3.53
2023-03-12T08:43:23.486Z,3.50
2023-03-12T08:44:25.677Z,5.63
2023-03-12T08:45:27.212Z,4.47
2023-03-12T08:46:29.560Z,4.38
2023-03-12T08:47:31.026Z,3.97
2023-03-12T08:48:32.943Z,4.05
2023-03-12T08:49:34.459Z,4.60
2023-03-12T08:50:36.112Z,3.25
2023-03-12T08:51:37.510Z,3.38
2023-03-12T08:52:39.144Z,3.45
2023-03-12T08:53:41.487Z,3.42
2023-03-12T08:54:42.924Z,3.25
2023-03-12T08:55:45.653Z,3.47
2023-03-12T08:56:52.408Z,3.03
2023-03-12T08:57:55.373Z,3.10
2023-03-12T08:58:58.889Z,2.97
2023-03-12T09:00:00.420Z,2.72
2023-03-12T09:01:01.885Z,3.47
2023-03-12T09:02:03.447Z,3.03
2023-03-12T09:03:04.884Z,3.30
2023-03-12T09:04:06.840Z,3.25
2023-03-12T09:05:08.400Z,3.47
2023-03-12T09:06:16.574Z,2.92
2023-03-12T09:07:22.117Z,3.40
2023-03-12T09:08:23.559Z,3.08
2023-03-12T09:09:24.980Z,3.25
2023-03-12T09:10:30.297Z,3.10
2023-03-12T09:11:33.750Z,3.65
2023-03-12T09:12:35.202Z,3.15
2023-03-12T09:14:02.515Z,3.45
2023-03-12T09:15:03.342Z,3.33
2023-03-12T09:16:06.367Z,3.15
2023-03-12T09:17:07.772Z,2.90
2023-03-12T09:18:09.183Z,2.65
2023-03-12T09:19:11.048Z,2.83
2023-03-12T09:20:14.150Z,2.72
2023-03-12T09:21:15.633Z,2.63
2023-03-12T09:22:17.351Z,2.80
2023-03-12T09:23:18.765Z,2.65
2023-03-12T09:24:20.196Z,2.88
2023-03-12T09:25:23.248Z,2.95
2023-03-12T09:26:24.735Z,2.67
2023-03-12T09:27:26.250Z,3.42
2023-03-12T09:28:27.674Z,2.65
2023-03-12T09:29:29.121Z,2.60
2023-03-12T09:30:32.024Z,2.72
2023-03-12T09:31:34.624Z,2.90
2023-03-12T09:32:36.452Z,2.58
2023-03-12T09:33:38.445Z,2.90
2023-03-12T09:34:39.858Z,2.60
2023-03-12T09:35:42.949Z,2.60
2023-03-12T09:36:44.459Z,2.50
2023-03-12T09:37:48.597Z,2.50
2023-03-12T09:38:50.127Z,2.90
2023-03-12T09:39:52.457Z,2.58
2023-03-12T09:40:54.442Z,2.50
2023-03-12T09:41:55.916Z,2.30
2023-03-12T09:43:04.652Z,2.33
2023-03-12T09:44:13.941Z,2.58
2023-03-12T09:45:27.011Z,2.58
2023-03-12T09:46:38.953Z,2.45
2023-03-12T09:48:01.936Z,2.63
2023-03-12T09:49:09.881Z,2.80
2023-03-12T09:50:28.237Z,2.75
2023-03-12T09:51:37.416Z,2.90
2023-03-12T09:53:00.964Z,3.17
2023-03-12T09:54:05.804Z,2.22
2023-03-12T09:55:16.860Z,3.00
2023-03-12T09:56:20.801Z,2.60
2023-03-12T09:57:26.239Z,2.55
2023-03-12T09:58:34.022Z,2.55
2023-03-12T09:59:36.914Z,2.50
2023-03-12T10:00:38.709Z,2.22
2023-03-12T10:01:48.264Z,2.05
2023-03-12T10:03:10.526Z,2.25
2023-03-12T10:04:36.163Z,1.95
2023-03-12T10:06:08.924Z,1.90
2023-03-12T10:07:34.929Z,1.90
2023-03-12T10:09:40.979Z,2.10
2023-03-12T10:11:13.297Z,1.75
2023-03-12T10:12:33.321Z,2.05
2023-03-12T10:15:15.076Z,1.85
2023-03-12T10:16:37.897Z,1.80
2023-03-12T10:17:48.582Z,2.08
2023-03-12T10:19:33.749Z,1.90
2023-03-12T10:20:51.032Z,1.80
2023-03-12T10:22:16.417Z,1.90
2023-03-12T10:23:39.206Z,2.30
2023-03-12T10:25:04.715Z,1.80
2023-03-12T10:26:12.743Z,1.60
2023-03-12T10:27:16.573Z,1.50
2023-03-12T10:28:30.166Z,1.83
2023-03-12T10:29:39.403Z,1.60
2023-03-12T10:30:45.846Z,1.40
2023-03-12T10:31:47.240Z,1.88
2023-03-12T10:32:53.988Z,1.90
2023-03-12T10:33:58.873Z,1.52
2023-03-12T10:35:07.225Z,1.65
2023-03-12T10:36:17.696Z,1.65
2023-03-12T10:37:24.780Z,1.90
2023-03-12T10:38:30.157Z,2.10
2023-03-12T10:39:32.105Z,1.50
2023-03-12T10:40:36.727Z,1.95
2023-03-12T10:41:38.281Z,1.70
2023-03-12T10:42:39.749Z,1.90
2023-03-12T10:43:41.435Z,1.70
2023-03-12T10:44:43.159Z,1.73
2023-03-12T10:46:07.441Z,1.60
2023-03-12T10:47:34.642Z,1.77
2023-03-12T10:48:36.090Z,3.00
2023-03-12T10:49:37.885Z,2.30
2023-03-12T10:50:40.898Z,2.22
2023-03-12T10:51:57.692Z,2.03
2023-03-12T10:53:20.339Z,2.30
2023-03-12T10:54:26.971Z,2.10
2023-03-12T10:55:30.032Z,2.17
2023-03-12T10:56:49.557Z,3.17
2023-03-12T10:57:51.453Z,2.10
2023-03-12T10:58:54.256Z,2.22
2023-03-12T11:00:07.990Z,2.70
2023-03-12T11:01:15.397Z,2.58
2023-03-12T11:02:46.738Z,2.50
2023-03-12T11:03:48.688Z,2.45
2023-03-12T11:04:53.625Z,2.50
2023-03-12T11:05:59.554Z,2.45
2023-03-12T11:07:34.256Z,2.60
2023-03-12T11:08:37.406Z,2.20
2023-03-12T11:09:38.971Z,2.47
2023-03-12T11:10:45.585Z,2.80
2023-03-12T11:11:48.779Z,2.83
2023-03-12T11:13:06.122Z,2.00
2023-03-12T11:14:16.649Z,2.38
2023-03-12T11:15:42.413Z,2.72
2023-03-12T11:16:44.064Z,3.20
2023-03-12T11:17:45.617Z,2.97
2023-03-12T11:19:15.214Z,2.70
2023-03-12T11:20:30.285Z,2.85
2023-03-12T11:21:38.184Z,2.25
2023-03-12T11:22:39.630Z,2.35
2023-03-12T11:23:44.499Z,2.42
2023-03-12T11:24:59.560Z,2.60
2023-03-12T11:26:04.230Z,2.97
2023-03-12T11:27:18.491Z,2.72
2023-03-12T11:28:24.134Z,2.75
2023-03-12T11:29:33.038Z,2.90
2023-03-12T11:30:40.133Z,3.00
2023-03-12T11:31:54.174Z,3.10
2023-03-12T11:34:07.848Z,2.65
2023-03-12T11:35:14.830Z,2.72
2023-03-12T11:36:58.629Z,3.15
2023-03-12T11:38:08.898Z,2.33
2023-03-12T11:39:43.186Z,3.80
2023-03-12T11:40:58.851Z,4.15
2023-03-12T11:42:11.119Z,2.60
2023-03-12T11:43:42.881Z,3.45
2023-03-12T11:45:04.255Z,2.67
2023-03-12T11:46:24.111Z,3.00
2023-03-12T11:47:43.384Z,2.65
2023-03-12T11:49:06.540Z,3.30
2023-03-12T11:50:41.433Z,2.85
2023-03-12T11:52:05.560Z,3.90
2023-03-12T11:53:24.980Z,3.65
2023-03-12T11:54:35.284Z,4.80
2023-03-12T11:55:56.585Z,2.80
2023-03-12T11:57:29.902Z,2.78
2023-03-12T11:59:15.603Z,3.00
2023-03-12T12:00:21.046Z,2.95
2023-03-12T12:01:39.383Z,2.70
2023-03-12T12:02:49.205Z,2.80
2023-03-12T12:04:18.783Z,2.78
2023-03-12T12:05:37.070Z,2.58
2023-03-12T12:06:57.028Z,2.88
2023-03-12T12:08:03.283Z,2.63
2023-03-12T12:09:16.965Z,2.55
2023-03-12T12:10:31.341Z,2.40
2023-03-12T12:12:06.441Z,2.70
2023-03-12T12:13:22.579Z,2.63
2023-03-12T12:14:38.812Z,2.50
2023-03-12T12:16:00.715Z,3.28
2023-03-12T12:17:16.807Z,3.08
2023-03-12T12:18:34.267Z,2.60
2023-03-12T12:19:56.611Z,2.97
2023-03-12T12:21:37.045Z,2.30
2023-03-12T12:22:52.123Z,4.93
2023-03-12T12:24:08.639Z,3.15
2023-03-12T12:25:24.217Z,2.80
2023-03-12T12:26:38.779Z,3.10
2023-03-12T12:28:03.097Z,3.17
2023-03-12T12:29:16.746Z,3.15
2023-03-12T12:30:45.930Z,2.92
2023-03-12T12:31:59.178Z,3.42
2023-03-12T12:33:17.375Z,2.75
2023-03-12T12:34:42.946Z,2.70
2023-03-12T12:35:45.874Z,2.50
2023-03-12T12:36:53.039Z,2.83
2023-03-12T12:38:15.669Z,2.55
2023-03-12T12:39:23.957Z,3.15
2023-03-12T12:40:31.979Z,2.95
2023-03-12T12:42:49.550Z,2.40
2023-03-12T12:43:57.146Z,2.55
2023-03-12T12:45:02.166Z,2.50
2023-03-12T12:46:12.831Z,2.42
2023-03-12T12:47:19.010Z,2.47
2023-03-12T12:48:35.312Z,2.20
2023-03-12T12:49:48.861Z,2.67
2023-03-12T12:50:53.866Z,2.30
2023-03-12T12:51:59.838Z,2.10
2023-03-12T12:53:16.626Z,2.08
2023-03-12T12:54:23.744Z,2.22
2023-03-12T12:55:30.910Z,2.00
2023-03-12T12:56:50.508Z,2.60
2023-03-12T12:57:57.423Z,2.17
2023-03-12T12:59:17.198Z,2.85
2023-03-12T13:00:39.309Z,2.50
2023-03-12T13:01:41.275Z,2.50
2023-03-12T13:03:46.964Z,2.60
2023-03-12T13:04:49.067Z,2.58
2023-03-12T13:06:57.851Z,2.33
2023-03-12T13:07:59.249Z,2.30
2023-03-12T13:09:13.511Z,2.42
2023-03-12T13:10:32.917Z,2.60
2023-03-12T13:11:44.683Z,2.42
2023-03-12T13:12:55.875Z,2.25
2023-03-12T13:14:03.661Z,2.03
2023-03-12T13:15:27.788Z,2.03
2023-03-12T13:16:35.638Z,2.40
2023-03-12T13:17:59.788Z,1.92
2023-03-12T13:19:24.132Z,2.45
2023-03-12T13:20:46.036Z,2.28
2023-03-12T13:22:03.326Z,2.13
2023-03-12T13:23:26.306Z,2.25
2023-03-12T13:24:46.596Z,1.88
2023-03-12T13:25:56.755Z,1.98
2023-03-12T13:27:19.869Z,1.83
2023-03-12T13:28:38.064Z,1.65
2023-03-12T13:29:41.635Z,1.88
2023-03-12T13:30:49.658Z,1.77
2023-03-12T13:32:58.264Z,1.30
2023-03-12T13:34:08.967Z,1.75
2023-03-12T13:35:16.148Z,1.40
2023-03-12T13:36:17.652Z,1.30
2023-03-12T13:37:59.388Z,1.20
2023-03-12T13:39:21.078Z,1.13
2023-03-12T13:40:31.391Z,1.20
2023-03-12T13:41:46.830Z,1.27
2023-03-12T13:43:21.613Z,1.40
2023-03-12T13:44:22.980Z,1.45
2023-03-12T13:45:27.495Z,1.52
2023-03-12T13:46:40.287Z,1.30
2023-03-12T13:47:43.285Z,1.30
2023-03-12T13:48:47.668Z,1.40
2023-03-12T13:49:57.675Z,1.27
2023-03-12T13:51:10.371Z,1.10
2023-03-12T13:52:25.112Z,1.30
2023-03-12T13:53:40.399Z,1.42
2023-03-12T13:54:45.747Z,1.40
2023-03-12T13:55:59.462Z,1.50
2023-03-12T13:57:11.891Z,1.45
2023-03-12T13:58:23.154Z,1.48
2023-03-12T13:59:27.267Z,1.73
2023-03-12T14:00:33.141Z,1.83
2023-03-12T14:01:46.537Z,1.55
2023-03-12T14:03:15.673Z,2.60
2023-03-12T14:04:22.163Z,1.40
2023-03-12T14:05:23.916Z,1.40
2023-03-12T14:06:30.193Z,1.10
2023-03-12T14:07:48.241Z,1.95
2023-03-12T14:09:34.592Z,1.70
2023-03-12T14:10:49.827Z,2.42
2023-03-12T14:12:08.782Z,2.10
2023-03-12T14:13:39.371Z,2.20
2023-03-12T14:14:55.723Z,1.42
2023-03-12T14:16:23.423Z,1.70
2023-03-12T14:17:27.654Z,1.50
2023-03-12T14:18:31.152Z,1.33
2023-03-12T14:19:47.616Z,1.42
2023-03-12T14:21:00.639Z,1.95
2023-03-12T14:22:06.518Z,1.48
2023-03-12T14:23:15.087Z,1.35
2023-03-12T14:24:50.450Z,1.40
2023-03-12T14:25:57.852Z,1.40
2023-03-12T14:27:01.750Z,1.55
2023-03-12T14:28:10.776Z,1.80
2023-03-12T14:29:25.159Z,1.50
2023-03-12T14:30:50.123Z,1.73
2023-03-12T14:31:54.882Z,2.78
2023-03-12T14:33:01.242Z,2.00
2023-03-12T14:34:12.934Z,1.92
2023-03-12T14:35:40.493Z,1.70
2023-03-12T14:36:55.165Z,1.50
2023-03-12T14:38:16.075Z,1.90
2023-03-12T14:39:42.167Z,2.47
2023-03-12T14:42:26.001Z,2.70
2023-03-12T14:43:31.810Z,2.75
2023-03-12T14:44:36.752Z,3.95
2023-03-12T14:45:40.306Z,4.47
2023-03-12T14:46:55.070Z,3.63
2023-03-12T14:47:58.215Z,5.50
2023-03-12T14:48:59.685Z,3.80
2023-03-12T14:50:01.130Z,4.05
2023-03-12T14:51:05.399Z,2.83
2023-03-12T14:52:07.985Z,4.13
2023-03-12T14:53:27.749Z,5.10
2023-03-12T14:54:29.381Z,4.05
2023-03-12T14:55:30.879Z,4.53
2023-03-12T14:56:35.432Z,4.40
2023-03-12T14:57:36.994Z,3.78
2023-03-12T14:58:48.181Z,3.63
2023-03-12T14:59:54.954Z,2.70